LIBR/BDS METAR and TAF weather

Enter ICAO airport designator
Station Type Date Time Source
LIBR METAR 2018/12/12 07:20 UTC NOAA

LIBR 120720Z 23007KT 9999 FEW035 05/03 Q1020


Station Type Date Time Source
LIBR Decoded METAR 2018/12/12 07:20 UTC NOAA

Brindisi, Italy (LIBR) 40-39N 017-57E 10M
Dec 12, 2018 - 02:20 AM EST / 2018.12.12 0720 UTC
Wind: from the SW (230 degrees) at 8 MPH (7 KT):0
Visibility: greater than 7 mile(s):0
Sky conditions: mostly clear
Temperature: 41 F (5 C)
Dew Point: 37 F (3 C)
Relative Humidity: 86%
Pressure (altimeter): 30.12 in. Hg (1020 hPa)
ob: LIBR 120720Z 23007KT 9999 FEW035 05/03 Q1020
cycle: 7

Station Type Date Time Source
LIBR TAF 2018/12/12 06:23 UTC NOAA

TAF LIBR 120500Z 1206/1306 33010KT 9999 SCT030
TEMPO 1206/1209 RA
BECMG 1218/1220 18010KT
TEMPO 1300/1306 RA


Example: see airport list